sensor_id;sensor_type;location;lat;lon;timestamp;temperature;humidity
11736;DHT22;5924;51.398;7.088;2023-09-12T00:00:16;19.10;99.90
11736;DHT22;5924;51.398;7.088;2023-09-12T00:02:41;19.10;99.90
11736;DHT22;5924;51.398;7.088;2023-09-12T00:05:07;19.00;99.90
11736;DHT22;5924;51.398;7.088;2023-09-12T00:07:33;19.00;99.90
11736;DHT22;5924;51.398;7.088;2023-09-12T00:09:58;19.00;99.90
11736;DHT22;5924;51.398;7.088;2023-09-12T00:12:24;18.90;99.90
11736;DHT22;5924;51.398;7.088;2023-09-12T00:14:53;18.80;99.90
11736;DHT22;5924;51.398;7.088;2023-09-12T00:17:18;18.80;99.90
11736;DHT22;5924;51.398;7.088;2023-09-12T00:19:44;18.90;99.90
11736;DHT22;5924;51.398;7.088;2023-09-12T00:22:10;18.80;99.90
11736;DHT22;5924;51.398;7.088;2023-09-12T00:24:36;18.80;99.90
11736;DHT22;5924;51.398;7.088;2023-09-12T00:27:03;18.80;99.90
11736;DHT22;5924;51.398;7.088;2023-09-12T00:29:30;18.90;99.90
11736;DHT22;5924;51.398;7.088;2023-09-12T00:31:56;18.90;99.90
11736;DHT22;5924;51.398;7.088;2023-09-12T00:34:21;18.80;99.90
11736;DHT22;5924;51.398;7.088;2023-09-12T00:36:47;18.80;99.90
11736;DHT22;5924;51.398;7.088;2023-09-12T00:39:12;18.80;99.90
11736;DHT22;5924;51.398;7.088;2023-09-12T00:41:38;18.80;99.90
11736;DHT22;5924;51.398;7.088;2023-09-12T00:44:04;18.70;99.90
11736;DHT22;5924;51.398;7.088;2023-09-12T00:46:30;18.70;99.90
11736;DHT22;5924;51.398;7.088;2023-09-12T00:48:57;18.70;99.90
11736;DHT22;5924;51.398;7.088;2023-09-12T00:51:25;18.70;99.90
11736;DHT22;5924;51.398;7.088;2023-09-12T00:53:51;18.80;99.90
11736;DHT22;5924;51.398;7.088;2023-09-12T00:56:17;18.80;99.90
11736;DHT22;5924;51.398;7.088;2023-09-12T00:58:43;18.90;99.90
11736;DHT22;5924;51.398;7.088;2023-09-12T01:01:10;18.90;99.90
11736;DHT22;5924;51.398;7.088;2023-09-12T01:03:36;18.90;99.90
11736;DHT22;5924;51.398;7.088;2023-09-12T01:06:02;18.90;99.90
11736;DHT22;5924;51.398;7.088;2023-09-12T01:08:28;19.00;99.90
11736;DHT22;5924;51.398;7.088;2023-09-12T01:10:55;18.90;99.90
11736;DHT22;5924;51.398;7.088;2023-09-12T01:13:23;18.90;99.90
11736;DHT22;5924;51.398;7.088;2023-09-12T01:15:49;18.90;99.90
11736;DHT22;5924;51.398;7.088;2023-09-12T01:18:14;18.90;99.90
11736;DHT22;5924;51.398;7.088;2023-09-12T01:20:50;18.90;99.90
11736;DHT22;5924;51.398;7.088;2023-09-12T01:23:37;18.90;99.90
11736;DHT22;5924;51.398;7.088;2023-09-12T01:28:55;18.90;99.90
11736;DHT22;5924;51.398;7.088;2023-09-12T01:31:23;18.80;99.90
11736;DHT22;5924;51.398;7.088;2023-09-12T01:33:54;18.80;99.90
11736;DHT22;5924;51.398;7.088;2023-09-12T01:36:19;18.80;99.90
11736;DHT22;5924;51.398;7.088;2023-09-12T01:38:45;18.80;99.90
11736;DHT22;5924;51.398;7.088;2023-09-12T01:41:11;18.70;99.90
11736;DHT22;5924;51.398;7.088;2023-09-12T01:43:37;18.70;99.90
11736;DHT22;5924;51.398;7.088;2023-09-12T01:46:05;18.70;99.90
11736;DHT22;5924;51.398;7.088;2023-09-12T01:48:35;18.70;99.90
11736;DHT22;5924;51.398;7.088;2023-09-12T01:51:01;18.70;99.90
11736;DHT22;5924;51.398;7.088;2023-09-12T01:53:28;18.70;99.90
11736;DHT22;5924;51.398;7.088;2023-09-12T01:55:56;18.70;99.90
11736;DHT22;5924;51.398;7.088;2023-09-12T01:58:24;18.60;99.90
11736;DHT22;5924;51.398;7.088;2023-09-12T02:00:50;18.60;99.90
11736;DHT22;5924;51.398;7.088;2023-09-12T02:03:16;18.50;99.90
11736;DHT22;5924;51.398;7.088;2023-09-12T02:05:41;18.50;99.90
11736;DHT22;5924;51.398;7.088;2023-09-12T02:08:07;18.50;99.90
11736;DHT22;5924;51.398;7.088;2023-09-12T02:10:33;18.60;99.90
11736;DHT22;5924;51.398;7.088;2023-09-12T02:12:59;18.60;99.90
11736;DHT22;5924;51.398;7.088;2023-09-12T02:15:24;18.70;99.90
11736;DHT22;5924;51.398;7.088;2023-09-12T02:17:50;18.70;99.90
11736;DHT22;5924;51.398;7.088;2023-09-12T02:20:16;18.70;99.90
11736;DHT22;5924;51.398;7.088;2023-09-12T02:22:42;18.70;99.90
11736;DHT22;5924;51.398;7.088;2023-09-12T02:25:08;18.60;99.90
11736;DHT22;5924;51.398;7.088;2023-09-12T02:27:34;18.60;99.90
11736;DHT22;5924;51.398;7.088;2023-09-12T02:29:59;18.60;99.90
11736;DHT22;5924;51.398;7.088;2023-09-12T02:32:25;18.50;99.90
11736;DHT22;5924;51.398;7.088;2023-09-12T02:34:51;18.50;99.90
11736;DHT22;5924;51.398;7.088;2023-09-12T02:37:18;18.50;99.90
11736;DHT22;5924;51.398;7.088;2023-09-12T02:39:44;18.50;99.90
11736;DHT22;5924;51.398;7.088;2023-09-12T02:42:10;18.50;99.90
11736;DHT22;5924;51.398;7.088;2023-09-12T02:44:35;18.50;99.90
11736;DHT22;5924;51.398;7.088;2023-09-12T02:47:02;18.50;99.90
11736;DHT22;5924;51.398;7.088;2023-09-12T02:49:28;18.50;99.90
11736;DHT22;5924;51.398;7.088;2023-09-12T02:51:53;18.50;99.90
11736;DHT22;5924;51.398;7.088;2023-09-12T02:54:19;18.50;99.90
11736;DHT22;5924;51.398;7.088;2023-09-12T02:56:45;18.50;99.90
11736;DHT22;5924;51.398;7.088;2023-09-12T02:59:10;18.50;99.90
11736;DHT22;5924;51.398;7.088;2023-09-12T03:01:36;18.50;99.90
11736;DHT22;5924;51.398;7.088;2023-09-12T03:04:02;18.50;99.90
11736;DHT22;5924;51.398;7.088;2023-09-12T03:06:28;18.50;99.90
11736;DHT22;5924;51.398;7.088;2023-09-12T03:08:54;19.20;99.90
11736;DHT22;5924;51.398;7.088;2023-09-12T03:11:20;18.60;99.90
11736;DHT22;5924;51.398;7.088;2023-09-12T03:13:45;18.60;99.90
11736;DHT22;5924;51.398;7.088;2023-09-12T03:16:12;18.60;99.90
11736;DHT22;5924;51.398;7.088;2023-09-12T03:18:38;18.60;99.90
11736;DHT22;5924;51.398;7.088;2023-09-12T03:21:04;18.70;99.90
11736;DHT22;5924;51.398;7.088;2023-09-12T03:23:29;18.70;99.90
11736;DHT22;5924;51.398;7.088;2023-09-12T03:25:55;18.70;99.90
11736;DHT22;5924;51.398;7.088;2023-09-12T03:28:20;18.70;99.90
11736;DHT22;5924;51.398;7.088;2023-09-12T03:30:46;18.70;99.90
11736;DHT22;5924;51.398;7.088;2023-09-12T03:33:12;18.60;99.90
11736;DHT22;5924;51.398;7.088;2023-09-12T03:35:37;18.60;99.90
11736;DHT22;5924;51.398;7.088;2023-09-12T03:38:03;18.60;99.90
11736;DHT22;5924;51.398;7.088;2023-09-12T03:40:29;18.60;99.90
11736;DHT22;5924;51.398;7.088;2023-09-12T03:42:58;18.50;99.90
11736;DHT22;5924;51.398;7.088;2023-09-12T03:45:24;18.50;99.90
11736;DHT22;5924;51.398;7.088;2023-09-12T03:47:51;18.50;99.90
11736;DHT22;5924;51.398;7.088;2023-09-12T03:50:17;18.40;99.90
11736;DHT22;5924;51.398;7.088;2023-09-12T03:52:42;18.30;99.90
11736;DHT22;5924;51.398;7.088;2023-09-12T03:55:08;18.30;99.90
11736;DHT22;5924;51.398;7.088;2023-09-12T03:57:34;18.30;99.90
11736;DHT22;5924;51.398;7.088;2023-09-12T04:00:00;18.20;99.90
11736;DHT22;5924;51.398;7.088;2023-09-12T04:02:25;18.30;99.90
11736;DHT22;5924;51.398;7.088;2023-09-12T04:04:51;18.30;99.90
11736;DHT22;5924;51.398;7.088;2023-09-12T04:07:17;18.30;99.90
11736;DHT22;5924;51.398;7.088;2023-09-12T04:09:43;18.30;99.90
11736;DHT22;5924;51.398;7.088;2023-09-12T04:12:09;18.30;99.90
11736;DHT22;5924;51.398;7.088;2023-09-12T04:14:35;18.30;99.90
11736;DHT22;5924;51.398;7.088;2023-09-12T04:17:01;18.30;99.90
11736;DHT22;5924;51.398;7.088;2023-09-12T04:19:27;18.30;99.90
11736;DHT22;5924;51.398;7.088;2023-09-12T04:21:52;18.30;99.90
11736;DHT22;5924;51.398;7.088;2023-09-12T04:24:18;18.20;99.90
11736;DHT22;5924;51.398;7.088;2023-09-12T04:26:44;18.10;99.90
11736;DHT22;5924;51.398;7.088;2023-09-12T04:29:10;18.10;99.90
11736;DHT22;5924;51.398;7.088;2023-09-12T04:31:36;18.10;99.90
11736;DHT22;5924;51.398;7.088;2023-09-12T04:34:01;18.00;99.90
11736;DHT22;5924;51.398;7.088;2023-09-12T04:36:27;18.00;99.90
11736;DHT22;5924;51.398;7.088;2023-09-12T04:38:53;18.10;99.90
11736;DHT22;5924;51.398;7.088;2023-09-12T04:41:18;18.10;99.90
11736;DHT22;5924;51.398;7.088;2023-09-12T04:43:44;18.00;99.90
11736;DHT22;5924;51.398;7.088;2023-09-12T04:46:11;18.00;99.90
11736;DHT22;5924;51.398;7.088;2023-09-12T04:48:37;18.10;99.90
11736;DHT22;5924;51.398;7.088;2023-09-12T04:51:03;18.10;99.90
11736;DHT22;5924;51.398;7.088;2023-09-12T04:53:29;18.10;99.90
11736;DHT22;5924;51.398;7.088;2023-09-12T04:56:00;18.10;99.90
11736;DHT22;5924;51.398;7.088;2023-09-12T04:58:26;18.10;99.90
11736;DHT22;5924;51.398;7.088;2023-09-12T05:00:53;18.10;99.90
11736;DHT22;5924;51.398;7.088;2023-09-12T05:03:19;18.10;99.90
11736;DHT22;5924;51.398;7.088;2023-09-12T05:05:49;18.10;99.90
11736;DHT22;5924;51.398;7.088;2023-09-12T05:08:15;18.20;99.90
11736;DHT22;5924;51.398;7.088;2023-09-12T05:10:43;18.20;99.90
11736;DHT22;5924;51.398;7.088;2023-09-12T05:13:09;18.20;99.90
11736;DHT22;5924;51.398;7.088;2023-09-12T05:15:34;18.20;99.90
11736;DHT22;5924;51.398;7.088;2023-09-12T05:18:00;18.30;99.90
11736;DHT22;5924;51.398;7.088;2023-09-12T05:20:25;18.30;99.90
11736;DHT22;5924;51.398;7.088;2023-09-12T05:22:51;18.40;99.90
11736;DHT22;5924;51.398;7.088;2023-09-12T05:25:17;18.40;99.90
11736;DHT22;5924;51.398;7.088;2023-09-12T05:27:42;18.50;99.90
11736;DHT22;5924;51.398;7.088;2023-09-12T05:30:08;18.50;99.90
11736;DHT22;5924;51.398;7.088;2023-09-12T05:32:34;18.50;99.90
11736;DHT22;5924;51.398;7.088;2023-09-12T05:34:59;18.50;99.90
11736;DHT22;5924;51.398;7.088;2023-09-12T05:37:25;18.40;99.90
11736;DHT22;5924;51.398;7.088;2023-09-12T05:39:50;18.40;99.90
11736;DHT22;5924;51.398;7.088;2023-09-12T05:42:23;18.40;99.90
11736;DHT22;5924;51.398;7.088;2023-09-12T05:44:49;18.40;99.90
11736;DHT22;5924;51.398;7.088;2023-09-12T05:47:19;18.40;99.90
11736;DHT22;5924;51.398;7.088;2023-09-12T05:49:44;18.30;99.90
11736;DHT22;5924;51.398;7.088;2023-09-12T05:52:10;18.30;99.90
11736;DHT22;5924;51.398;7.088;2023-09-12T05:54:36;16.70;99.90
11736;DHT22;5924;51.398;7.088;2023-09-12T05:57:02;18.30;99.90
11736;DHT22;5924;51.398;7.088;2023-09-12T05:59:28;18.40;99.90
11736;DHT22;5924;51.398;7.088;2023-09-12T06:01:54;18.50;99.90
11736;DHT22;5924;51.398;7.088;2023-09-12T06:04:21;18.70;99.90
11736;DHT22;5924;51.398;7.088;2023-09-12T06:06:47;18.70;99.90
11736;DHT22;5924;51.398;7.088;2023-09-12T06:09:18;18.80;99.90
11736;DHT22;5924;51.398;7.088;2023-09-12T06:11:47;18.90;99.90
11736;DHT22;5924;51.398;7.088;2023-09-12T06:14:13;18.90;99.90
11736;DHT22;5924;51.398;7.088;2023-09-12T06:16:38;18.90;99.90
11736;DHT22;5924;51.398;7.088;2023-09-12T06:19:04;18.90;99.90
11736;DHT22;5924;51.398;7.088;2023-09-12T06:21:29;18.90;99.90
11736;DHT22;5924;51.398;7.088;2023-09-12T06:24:13;18.80;99.90
11736;DHT22;5924;51.398;7.088;2023-09-12T06:26:39;18.70;99.90
11736;DHT22;5924;51.398;7.088;2023-09-12T06:29:05;18.60;99.90
11736;DHT22;5924;51.398;7.088;2023-09-12T06:31:31;18.50;99.90
11736;DHT22;5924;51.398;7.088;2023-09-12T06:33:58;18.50;99.90
11736;DHT22;5924;51.398;7.088;2023-09-12T06:36:27;18.50;99.90
11736;DHT22;5924;51.398;7.088;2023-09-12T06:38:55;18.40;99.90
11736;DHT22;5924;51.398;7.088;2023-09-12T06:41:21;18.30;99.90
11736;DHT22;5924;51.398;7.088;2023-09-12T06:43:49;18.20;99.90
11736;DHT22;5924;51.398;7.088;2023-09-12T06:46:15;18.20;99.90
11736;DHT22;5924;51.398;7.088;2023-09-12T06:48:45;18.10;99.90
11736;DHT22;5924;51.398;7.088;2023-09-12T06:51:11;18.10;99.90
11736;DHT22;5924;51.398;7.088;2023-09-12T06:53:37;18.10;99.90
11736;DHT22;5924;51.398;7.088;2023-09-12T06:56:04;18.10;99.90
11736;DHT22;5924;51.398;7.088;2023-09-12T06:58:30;18.10;99.90
11736;DHT22;5924;51.398;7.088;2023-09-12T07:00:55;18.10;99.90
11736;DHT22;5924;51.398;7.088;2023-09-12T07:03:21;18.10;99.90
11736;DHT22;5924;51.398;7.088;2023-09-12T07:05:48;15.90;99.90
11736;DHT22;5924;51.398;7.088;2023-09-12T07:08:14;18.10;99.90
11736;DHT22;5924;51.398;7.088;2023-09-12T07:10:46;18.10;99.90
11736;DHT22;5924;51.398;7.088;2023-09-12T07:13:12;18.20;99.90
11736;DHT22;5924;51.398;7.088;2023-09-12T07:15:37;18.30;99.90
11736;DHT22;5924;51.398;7.088;2023-09-12T07:18:04;18.30;99.90
11736;DHT22;5924;51.398;7.088;2023-09-12T07:20:32;18.30;99.90
11736;DHT22;5924;51.398;7.088;2023-09-12T07:22:58;18.20;99.90
11736;DHT22;5924;51.398;7.088;2023-09-12T07:25:26;18.20;99.90
11736;DHT22;5924;51.398;7.088;2023-09-12T07:27:52;18.10;99.90
11736;DHT22;5924;51.398;7.088;2023-09-12T07:30:18;18.10;99.90
11736;DHT22;5924;51.398;7.088;2023-09-12T07:32:44;18.20;99.90
11736;DHT22;5924;51.398;7.088;2023-09-12T07:35:10;18.20;99.90
11736;DHT22;5924;51.398;7.088;2023-09-12T07:37:36;18.30;99.90
11736;DHT22;5924;51.398;7.088;2023-09-12T07:40:02;18.30;99.90
11736;DHT22;5924;51.398;7.088;2023-09-12T07:42:34;18.40;99.90
11736;DHT22;5924;51.398;7.088;2023-09-12T07:45:00;18.40;99.90
11736;DHT22;5924;51.398;7.088;2023-09-12T07:47:28;18.70;99.90
11736;DHT22;5924;51.398;7.088;2023-09-12T07:49:54;21.60;99.90
11736;DHT22;5924;51.398;7.088;2023-09-12T07:52:20;19.20;99.90
11736;DHT22;5924;51.398;7.088;2023-09-12T07:54:45;19.20;99.90
11736;DHT22;5924;51.398;7.088;2023-09-12T07:57:11;19.40;99.90
11736;DHT22;5924;51.398;7.088;2023-09-12T07:59:37;19.60;99.90
11736;DHT22;5924;51.398;7.088;2023-09-12T08:02:02;19.80;99.90
11736;DHT22;5924;51.398;7.088;2023-09-12T08:04:28;19.90;99.90
11736;DHT22;5924;51.398;7.088;2023-09-12T08:06:54;19.90;99.90
11736;DHT22;5924;51.398;7.088;2023-09-12T08:09:20;19.80;99.90
11736;DHT22;5924;51.398;7.088;2023-09-12T08:11:45;19.80;99.90
11736;DHT22;5924;51.398;7.088;2023-09-12T08:14:11;19.80;99.90
11736;DHT22;5924;51.398;7.088;2023-09-12T08:16:36;19.80;99.90
11736;DHT22;5924;51.398;7.088;2023-09-12T08:19:02;19.70;99.90
11736;DHT22;5924;51.398;7.088;2023-09-12T08:21:27;20.30;99.90
11736;DHT22;5924;51.398;7.088;2023-09-12T08:23:54;19.60;99.90
11736;DHT22;5924;51.398;7.088;2023-09-12T08:26:20;19.70;99.90
11736;DHT22;5924;51.398;7.088;2023-09-12T08:28:46;19.70;99.90
11736;DHT22;5924;51.398;7.088;2023-09-12T08:31:11;19.70;99.90
11736;DHT22;5924;51.398;7.088;2023-09-12T08:33:37;19.80;99.90
11736;DHT22;5924;51.398;7.088;2023-09-12T08:36:03;19.80;99.90
11736;DHT22;5924;51.398;7.088;2023-09-12T08:38:28;19.90;99.90
11736;DHT22;5924;51.398;7.088;2023-09-12T08:40:54;19.90;99.90
11736;DHT22;5924;51.398;7.088;2023-09-12T08:43:20;19.90;99.90
11736;DHT22;5924;51.398;7.088;2023-09-12T08:45:46;18.20;99.90
11736;DHT22;5924;51.398;7.088;2023-09-12T08:48:13;19.90;99.90
11736;DHT22;5924;51.398;7.088;2023-09-12T08:50:41;20.00;99.90
11736;DHT22;5924;51.398;7.088;2023-09-12T08:53:07;20.00;99.90
11736;DHT22;5924;51.398;7.088;2023-09-12T08:55:33;20.10;99.90
11736;DHT22;5924;51.398;7.088;2023-09-12T08:58:02;20.20;99.90
11736;DHT22;5924;51.398;7.088;2023-09-12T09:00:28;20.30;99.90
11736;DHT22;5924;51.398;7.088;2023-09-12T09:02:54;20.40;99.90
11736;DHT22;5924;51.398;7.088;2023-09-12T09:05:21;20.40;99.90
11736;DHT22;5924;51.398;7.088;2023-09-12T09:07:48;20.60;99.90
11736;DHT22;5924;51.398;7.088;2023-09-12T09:10:16;20.70;99.90
11736;DHT22;5924;51.398;7.088;2023-09-12T09:12:44;20.80;99.90
11736;DHT22;5924;51.398;7.088;2023-09-12T09:15:23;20.90;99.90
11736;DHT22;5924;51.398;7.088;2023-09-12T09:17:51;20.90;99.90
11736;DHT22;5924;51.398;7.088;2023-09-12T09:20:45;20.80;99.90
11736;DHT22;5924;51.398;7.088;2023-09-12T09:23:14;20.80;99.90
11736;DHT22;5924;51.398;7.088;2023-09-12T09:25:51;21.00;99.90
11736;DHT22;5924;51.398;7.088;2023-09-12T09:28:18;21.00;99.90
11736;DHT22;5924;51.398;7.088;2023-09-12T09:30:46;21.00;99.90
11736;DHT22;5924;51.398;7.088;2023-09-12T09:33:13;21.10;99.90
11736;DHT22;5924;51.398;7.088;2023-09-12T09:35:41;21.00;99.90
11736;DHT22;5924;51.398;7.088;2023-09-12T09:38:07;20.90;99.90
11736;DHT22;5924;51.398;7.088;2023-09-12T09:40:34;20.80;99.90
11736;DHT22;5924;51.398;7.088;2023-09-12T09:43:02;20.70;99.90
11736;DHT22;5924;51.398;7.088;2023-09-12T09:45:29;20.60;99.90
11736;DHT22;5924;51.398;7.088;2023-09-12T09:48:22;20.60;99.90
11736;DHT22;5924;51.398;7.088;2023-09-12T09:50:48;20.70;99.90
11736;DHT22;5924;51.398;7.088;2023-09-12T09:53:14;20.70;99.90
11736;DHT22;5924;51.398;7.088;2023-09-12T09:55:40;20.80;99.90
11736;DHT22;5924;51.398;7.088;2023-09-12T09:58:07;21.00;99.90
11736;DHT22;5924;51.398;7.088;2023-09-12T10:00:34;21.20;99.90
11736;DHT22;5924;51.398;7.088;2023-09-12T10:03:04;21.50;99.90
11736;DHT22;5924;51.398;7.088;2023-09-12T10:05:32;21.70;99.90
11736;DHT22;5924;51.398;7.088;2023-09-12T10:07:59;20.70;99.90
11736;DHT22;5924;51.398;7.088;2023-09-12T10:10:29;22.00;99.90
11736;DHT22;5924;51.398;7.088;2023-09-12T10:12:58;22.10;99.90
11736;DHT22;5924;51.398;7.088;2023-09-12T10:15:29;22.40;99.90
11736;DHT22;5924;51.398;7.088;2023-09-12T10:17:59;22.60;99.90
11736;DHT22;5924;51.398;7.088;2023-09-12T10:25:50;22.80;99.90
11736;DHT22;5924;51.398;7.088;2023-09-12T10:28:17;22.80;99.90
11736;DHT22;5924;51.398;7.088;2023-09-12T10:30:44;22.80;99.90
11736;DHT22;5924;51.398;7.088;2023-09-12T10:33:11;22.90;99.90
11736;DHT22;5924;51.398;7.088;2023-09-12T10:35:37;23.00;99.90
11736;DHT22;5924;51.398;7.088;2023-09-12T10:38:05;23.00;99.90
11736;DHT22;5924;51.398;7.088;2023-09-12T10:40:36;23.10;99.90
11736;DHT22;5924;51.398;7.088;2023-09-12T10:43:03;23.30;99.90
11736;DHT22;5924;51.398;7.088;2023-09-12T10:45:31;23.20;99.90
11736;DHT22;5924;51.398;7.088;2023-09-12T10:47:58;23.20;99.90
11736;DHT22;5924;51.398;7.088;2023-09-12T10:50:24;23.30;99.90
11736;DHT22;5924;51.398;7.088;2023-09-12T10:52:50;23.50;99.90
11736;DHT22;5924;51.398;7.088;2023-09-12T10:55:16;23.80;99.90
11736;DHT22;5924;51.398;7.088;2023-09-12T10:58:11;24.00;99.90
11736;DHT22;5924;51.398;7.088;2023-09-12T11:00:37;24.40;99.90
11736;DHT22;5924;51.398;7.088;2023-09-12T11:05:55;24.90;99.90
11736;DHT22;5924;51.398;7.088;2023-09-12T11:08:21;24.90;99.90
11736;DHT22;5924;51.398;7.088;2023-09-12T11:11:16;24.80;99.90
11736;DHT22;5924;51.398;7.088;2023-09-12T11:13:43;24.60;99.90
11736;DHT22;5924;51.398;7.088;2023-09-12T11:16:13;24.60;99.90
11736;DHT22;5924;51.398;7.088;2023-09-12T11:19:17;24.50;99.90
11736;DHT22;5924;51.398;7.088;2023-09-12T11:21:51;24.50;99.90
11736;DHT22;5924;51.398;7.088;2023-09-12T11:24:20;24.50;99.90
11736;DHT22;5924;51.398;7.088;2023-09-12T11:26:57;24.60;99.90
11736;DHT22;5924;51.398;7.088;2023-09-12T11:29:38;24.70;99.90
11736;DHT22;5924;51.398;7.088;2023-09-12T11:32:05;24.60;99.90
11736;DHT22;5924;51.398;7.088;2023-09-12T11:34:38;24.60;99.90
11736;DHT22;5924;51.398;7.088;2023-09-12T11:37:06;24.60;99.90
11736;DHT22;5924;51.398;7.088;2023-09-12T11:39:33;24.70;99.90
11736;DHT22;5924;51.398;7.088;2023-09-12T11:42:01;24.70;99.90
11736;DHT22;5924;51.398;7.088;2023-09-12T11:44:28;24.70;99.90
11736;DHT22;5924;51.398;7.088;2023-09-12T11:46:54;24.70;99.90
11736;DHT22;5924;51.398;7.088;2023-09-12T11:49:34;24.80;99.90
11736;DHT22;5924;51.398;7.088;2023-09-12T11:52:00;24.80;99.90
11736;DHT22;5924;51.398;7.088;2023-09-12T11:54:26;24.70;99.90
11736;DHT22;5924;51.398;7.088;2023-09-12T11:56:53;24.70;99.90
11736;DHT22;5924;51.398;7.088;2023-09-12T11:59:29;25.40;99.90
11736;DHT22;5924;51.398;7.088;2023-09-12T12:01:55;25.00;99.90
11736;DHT22;5924;51.398;7.088;2023-09-12T12:04:22;25.00;99.90
11736;DHT22;5924;51.398;7.088;2023-09-12T12:06:50;25.00;99.90
11736;DHT22;5924;51.398;7.088;2023-09-12T12:09:19;25.10;99.90
11736;DHT22;5924;51.398;7.088;2023-09-12T12:11:46;25.30;99.90
11736;DHT22;5924;51.398;7.088;2023-09-12T12:14:17;25.60;99.90
11736;DHT22;5924;51.398;7.088;2023-09-12T12:16:45;26.00;99.90
11736;DHT22;5924;51.398;7.088;2023-09-12T12:19:12;26.30;99.90
11736;DHT22;5924;51.398;7.088;2023-09-12T12:21:39;26.90;99.90
11736;DHT22;5924;51.398;7.088;2023-09-12T12:24:07;27.90;99.90
11736;DHT22;5924;51.398;7.088;2023-09-12T12:26:33;28.70;99.90
11736;DHT22;5924;51.398;7.088;2023-09-12T12:29:04;29.00;99.90
11736;DHT22;5924;51.398;7.088;2023-09-12T12:31:29;28.80;99.90
11736;DHT22;5924;51.398;7.088;2023-09-12T12:33:56;29.00;99.90
11736;DHT22;5924;51.398;7.088;2023-09-12T12:36:22;29.20;99.90
11736;DHT22;5924;51.398;7.088;2023-09-12T12:38:49;29.30;99.90
11736;DHT22;5924;51.398;7.088;2023-09-12T12:41:16;29.40;99.90
11736;DHT22;5924;51.398;7.088;2023-09-12T12:43:49;29.50;99.90
11736;DHT22;5924;51.398;7.088;2023-09-12T12:46:16;29.10;99.90
11736;DHT22;5924;51.398;7.088;2023-09-12T12:48:45;29.10;99.90
11736;DHT22;5924;51.398;7.088;2023-09-12T12:53:44;29.70;99.90
11736;DHT22;5924;51.398;7.088;2023-09-12T12:56:14;29.80;99.90
11736;DHT22;5924;51.398;7.088;2023-09-12T12:58:54;30.10;99.90
11736;DHT22;5924;51.398;7.088;2023-09-12T13:01:21;30.40;99.90
11736;DHT22;5924;51.398;7.088;2023-09-12T13:03:47;30.80;99.90
11736;DHT22;5924;51.398;7.088;2023-09-12T13:06:14;31.20;99.90
11736;DHT22;5924;51.398;7.088;2023-09-12T13:08:41;31.40;99.90
11736;DHT22;5924;51.398;7.088;2023-09-12T13:11:08;31.80;99.90
11736;DHT22;5924;51.398;7.088;2023-09-12T13:13:34;32.30;99.90
11736;DHT22;5924;51.398;7.088;2023-09-12T13:16:00;32.40;99.90
11736;DHT22;5924;51.398;7.088;2023-09-12T13:18:26;31.90;99.90
11736;DHT22;5924;51.398;7.088;2023-09-12T13:20:51;31.80;99.90
11736;DHT22;5924;51.398;7.088;2023-09-12T13:23:17;32.10;99.90
11736;DHT22;5924;51.398;7.088;2023-09-12T13:25:43;32.40;99.90
11736;DHT22;5924;51.398;7.088;2023-09-12T13:28:08;32.50;99.90
11736;DHT22;5924;51.398;7.088;2023-09-12T13:30:34;32.90;99.90
11736;DHT22;5924;51.398;7.088;2023-09-12T13:33:00;33.20;99.90
11736;DHT22;5924;51.398;7.088;2023-09-12T13:35:25;32.90;99.90
11736;DHT22;5924;51.398;7.088;2023-09-12T13:37:51;32.60;99.90
11736;DHT22;5924;51.398;7.088;2023-09-12T13:40:17;32.30;99.90
11736;DHT22;5924;51.398;7.088;2023-09-12T13:42:42;32.30;99.90
11736;DHT22;5924;51.398;7.088;2023-09-12T13:45:08;32.60;99.90
11736;DHT22;5924;51.398;7.088;2023-09-12T13:47:34;33.00;99.90
11736;DHT22;5924;51.398;7.088;2023-09-12T13:50:00;33.10;99.90
11736;DHT22;5924;51.398;7.088;2023-09-12T13:52:28;32.90;99.90
11736;DHT22;5924;51.398;7.088;2023-09-12T13:54:54;32.90;99.90
11736;DHT22;5924;51.398;7.088;2023-09-12T13:57:20;33.20;99.90
11736;DHT22;5924;51.398;7.088;2023-09-12T13:59:45;33.50;99.90
11736;DHT22;5924;51.398;7.088;2023-09-12T14:02:11;33.80;99.90
11736;DHT22;5924;51.398;7.088;2023-09-12T14:04:37;33.40;99.90
11736;DHT22;5924;51.398;7.088;2023-09-12T14:07:03;33.40;99.90
11736;DHT22;5924;51.398;7.088;2023-09-12T14:09:28;33.20;99.90
11736;DHT22;5924;51.398;7.088;2023-09-12T14:11:54;33.00;99.90
11736;DHT22;5924;51.398;7.088;2023-09-12T14:14:20;33.00;99.90
11736;DHT22;5924;51.398;7.088;2023-09-12T14:16:45;32.60;99.90
11736;DHT22;5924;51.398;7.088;2023-09-12T14:19:11;32.00;99.90
11736;DHT22;5924;51.398;7.088;2023-09-12T14:21:37;31.20;99.90
11736;DHT22;5924;51.398;7.088;2023-09-12T14:24:03;30.30;99.90
11736;DHT22;5924;51.398;7.088;2023-09-12T14:26:29;29.50;99.90
11736;DHT22;5924;51.398;7.088;2023-09-12T14:28:55;29.10;99.90
11736;DHT22;5924;51.398;7.088;2023-09-12T14:31:22;28.90;99.90
11736;DHT22;5924;51.398;7.088;2023-09-12T14:33:48;28.50;99.90
11736;DHT22;5924;51.398;7.088;2023-09-12T14:36:14;28.10;99.90
11736;DHT22;5924;51.398;7.088;2023-09-12T14:38:40;27.90;99.90
11736;DHT22;5924;51.398;7.088;2023-09-12T14:41:05;28.00;99.90
11736;DHT22;5924;51.398;7.088;2023-09-12T14:43:31;28.10;99.90
11736;DHT22;5924;51.398;7.088;2023-09-12T14:45:57;28.10;99.90
11736;DHT22;5924;51.398;7.088;2023-09-12T14:48:22;28.40;99.90
11736;DHT22;5924;51.398;7.088;2023-09-12T14:50:48;28.70;99.90
11736;DHT22;5924;51.398;7.088;2023-09-12T14:53:15;29.30;99.90
11736;DHT22;5924;51.398;7.088;2023-09-12T14:55:44;29.70;99.90
11736;DHT22;5924;51.398;7.088;2023-09-12T14:58:09;29.70;99.90
11736;DHT22;5924;51.398;7.088;2023-09-12T15:00:35;29.70;99.90
11736;DHT22;5924;51.398;7.088;2023-09-12T15:03:01;29.50;99.90
11736;DHT22;5924;51.398;7.088;2023-09-12T15:05:27;29.30;99.90
11736;DHT22;5924;51.398;7.088;2023-09-12T15:07:53;29.10;99.90
11736;DHT22;5924;51.398;7.088;2023-09-12T15:10:19;29.00;99.90
11736;DHT22;5924;51.398;7.088;2023-09-12T15:12:44;28.70;99.90
11736;DHT22;5924;51.398;7.088;2023-09-12T15:15:11;28.50;99.90
11736;DHT22;5924;51.398;7.088;2023-09-12T15:17:36;28.20;99.90
11736;DHT22;5924;51.398;7.088;2023-09-12T15:20:02;27.90;99.90
11736;DHT22;5924;51.398;7.088;2023-09-12T15:22:31;27.70;99.90
11736;DHT22;5924;51.398;7.088;2023-09-12T15:24:57;27.50;99.90
11736;DHT22;5924;51.398;7.088;2023-09-12T15:27:23;27.20;99.90
11736;DHT22;5924;51.398;7.088;2023-09-12T15:29:48;27.20;99.90
11736;DHT22;5924;51.398;7.088;2023-09-12T15:32:14;27.00;99.90
11736;DHT22;5924;51.398;7.088;2023-09-12T15:34:40;27.00;99.90
11736;DHT22;5924;51.398;7.088;2023-09-12T15:37:07;27.00;99.90
11736;DHT22;5924;51.398;7.088;2023-09-12T15:39:33;27.00;99.90
11736;DHT22;5924;51.398;7.088;2023-09-12T15:41:59;27.10;99.90
11736;DHT22;5924;51.398;7.088;2023-09-12T15:44:25;27.30;99.90
11736;DHT22;5924;51.398;7.088;2023-09-12T15:46:51;27.20;99.90
11736;DHT22;5924;51.398;7.088;2023-09-12T15:49:18;27.30;99.90
11736;DHT22;5924;51.398;7.088;2023-09-12T15:51:44;27.50;99.90
11736;DHT22;5924;51.398;7.088;2023-09-12T15:54:10;27.40;99.90
11736;DHT22;5924;51.398;7.088;2023-09-12T15:56:35;27.30;99.90